Historyczne dane pomiarowe

Dodano dane terminowe – wersja testowa.

Dane z okresu 1951-2019

Wersja bazy: 1.34 [2019-03-16, lista zmian], aktualizacja planowana na 2019-04-15

Dane meteo z obszaru Polski uzyskane na podstawie danych udostępnionych przez Instytut Meteorologii i Gospodarki Wodnej – Państwowy Instytut Badawczy.

 

Wybierz Datę:    

       

TemperaturaWilgotnośćWiatrCiśnienieOpadyŚniegCzas trwania zjawisk
 Stacja t tx tn tng RH VA  wxwx mslp ppp RRR   cm mm wxwxwxwxwxwxwx
1956-11-09 -0.3 3.4 -2.6 -5.5 71.0- 2.7 5.0---- 0.0------------
1956-11-08 1.0 4.9 -2.6 -8.0 78.3- 5.3 1.7---- 0.0------------
1956-11-07 3.7 5.3 2.6 2.5 72.3- 8.0 1.7---- 0.8------------
1956-11-06 5.0 6.4 2.4 1.2 64.5- 6.3 8.0---- 3.3------------
1956-11-05 6.9 8.8 3.9 3.6 67.3- 6.0 8.7---- 0.7------------
1956-11-04 3.9 5.2 0.3 -0.3 87.8- 8.0 2.0---- 0.6------------
1956-11-03 1.8 6.0 -1.1 -4.9 78.5- 5.0 2.0---- 0.0------------
1956-11-02 2.1 6.7 -0.7 -0.9 81.0- 4.0 1.0---- 0.0------------
1956-11-01 1.9 2.9 -2.6 -4.4 94.8- 7.3 4.0---- 0.6------------
1956-10-31 -1.7 1.4 -5.5 -4.4 71.0- 3.0 1.7---- 0.0------------
1956-10-30 0.0 2.2 -0.7 -1.9 89.0- 5.7 8.3---- 0.6------------
1956-10-29 3.5 7.1 1.6 4.2 84.5- 8.0 8.3---- 3.4------------
1956-10-28 7.6 8.6 5.8 4.9 94.0- 8.0 6.0---- 0.9------------
1956-10-27 7.7 9.8 2.4 -2.0 86.0- 7.7 9.7---- 14.3------------
1956-10-26 5.0 9.3 3.3 1.3 88.8- 5.7 1.7---- 0.0------------
1956-10-25 9.8 13.4 7.0 10.0 81.5- 5.7 4.3---- 0.2------------
1956-10-24 13.0 13.9 10.1 9.6 85.3- 7.7 3.0---- 0.0------------
1956-10-23 10.8 12.2 9.8 9.4 79.8- 7.7 5.0---- 0.0------------
1956-10-22 12.2 13.1 11.2 10.9 79.0- 7.0 6.3---- 0.0------------
1956-10-21 12.5 13.6 9.9 8.0 88.8- 7.7 4.0---- 0.0------------
1956-10-20 10.6 12.1 6.6 3.8 89.5- 7.7 2.3---- 0.0------------
1956-10-19 10.4 12.3 8.3 9.6 89.5- 7.0 3.3---- 0.0------------
1956-10-18 12.3 14.6 10.1 9.2 98.5- 8.0 2.0---- 8.9------------
1956-10-17 11.1 15.8 3.3 0.1 71.8- 4.0 3.3---- 0.1------------
1956-10-16 6.4 13.8 0.3 -4.9 85.5- 0.0 0.3---- 0.0------------
1956-10-15 4.8 11.9 1.3 -1.3 88.0- 0.3 0.7---- 0.0------------
1956-10-14 10.6 12.9 9.1 7.2 62.0- 3.0 7.0---- 0.0------------
1956-10-13 11.0 12.4 9.7 9.2 83.3- 7.7 12.0---- 9.3------------
1956-10-12 11.6 12.3 9.9 9.6 79.5- 7.0 8.0---- 0.2------------
1956-10-11 11.1 12.4 5.9 4.4 86.3- 7.3 5.7---- 0.0------------
1956-10-10 6.3 10.7 0.4 -4.5 79.0- 4.7 2.0---- 0.0------------
1956-10-09 9.9 11.9 5.4 4.8 75.3- 5.3 6.3---- 4.8------------
1956-10-08 7.5 9.7 5.3 3.4 69.3- 7.0 2.7---- 11.2------------
1956-10-07 8.5 9.5 6.0 5.4 70.0- 5.3 6.7---- 2.4------------
1956-10-06 7.9 9.9 2.6 1.1 79.5- 6.0 2.7---- 2.7------------
1956-10-05 6.1 10.7 4.6 4.0 93.8- 5.0 3.3---- 2.6------------
1956-10-04 9.9 13.8 7.5 4.7 85.0- 5.7 4.0---- 0.0------------
1956-10-03 10.9 14.3 7.4 12.1 90.3- 4.0 4.3---- 1.8------------
1956-10-02 14.9 19.3 10.3 5.2 90.8- 7.3 3.3---- 8.2------------
1956-10-01 12.8 16.8 8.3 4.9 95.3- 7.3 1.7---- 12.6------------
1956-09-30 12.1 18.4 8.8 6.9 85.8- 1.3 3.3---- 1.2------------
1956-09-29 13.9 17.3 12.2 10.6 79.8- 3.3 6.0---- 0.0------------
1956-09-28 15.6 17.8 12.9 11.5 83.5- 7.3 7.0---- 4.4------------
1956-09-27 14.1 17.0 9.2 6.6 88.3- 4.0 2.7---- 3.3------------
1956-09-26 14.9 21.9 8.5 6.5 70.5- 0.7 2.7---- 0.0------------
1956-09-25 12.8 20.3 4.1 0.3 71.0- 0.0 2.7---- 0.0------------
1956-09-24 10.5 16.6 5.2 2.1 62.5- 0.0 4.0---- 0.0------------
1956-09-23 12.9 18.5 8.8 6.6 77.8- 1.7 4.7---- 0.0------------
1956-09-22 13.4 19.4 7.2 3.0 74.5- 0.0 3.7---- 0.0------------
1956-09-21 10.8 16.8 3.7 -1.7 90.8- 0.0 0.3---- 0.0------------
1956-09-20 9.2 14.3 5.0 1.0 90.8- 3.7 1.0---- 0.0------------
1956-09-19 9.0 15.3 2.4 -2.8 87.5- 4.0 1.0---- 0.0------------
1956-09-18 10.4 15.0 4.4 -0.9 81.0- 3.7 3.7---- 0.0------------
1956-09-17 12.0 14.6 9.1 7.4 65.8- 3.7 3.7---- 0.6------------
1956-09-16 13.0 13.9 11.3 9.4 71.5- 6.3 7.3---- 3.3------------
1956-09-15 13.2 14.7 10.9 8.1 66.8- 5.3 6.7---- 0.0------------
1956-09-14 11.6 15.9 2.1 -1.7 82.8- 3.0 1.7---- 0.0------------
1956-09-13 12.7 13.3 9.6 8.0 72.3- 6.3 10.7---- 5.6------------
1956-09-12 13.4 15.6 10.1 10.5 66.3- 6.0 10.0---- 5.4------------
1956-09-11 14.8 18.3 9.3 3.9 94.3- 4.7 2.0---- 14.4------------
160.6 ms

 

Źródłem pochodzenia danych jest Instytut Meteorologii i Gospodarki Wodnej – Państwowy Instytut Badawczy. Dane Instytutu Meteorologii i Gospodarki Wodnej – Państwowego Instytutu Badawczego zostały przetworzone.

Dane źródłowe można odnaleźć na stronie https://dane.imgw.pl